sensor_id;sensor_type;location;lat;lon;timestamp;temperature;humidity
2447;DHT22;26430;48.818;9.244;2023-08-30T00:00:40;14.20;99.90
2447;DHT22;26430;48.818;9.244;2023-08-30T00:03:06;14.10;99.90
2447;DHT22;26430;48.818;9.244;2023-08-30T00:05:32;14.10;99.90
2447;DHT22;26430;48.818;9.244;2023-08-30T00:07:58;14.10;99.90
2447;DHT22;26430;48.818;9.244;2023-08-30T00:10:24;14.20;99.90
2447;DHT22;26430;48.818;9.244;2023-08-30T00:12:49;14.10;99.90
2447;DHT22;26430;48.818;9.244;2023-08-30T00:15:15;14.20;99.90
2447;DHT22;26430;48.818;9.244;2023-08-30T00:17:40;14.20;99.90
2447;DHT22;26430;48.818;9.244;2023-08-30T00:20:06;14.20;99.90
2447;DHT22;26430;48.818;9.244;2023-08-30T00:22:34;14.10;99.90
2447;DHT22;26430;48.818;9.244;2023-08-30T00:24:59;14.20;99.90
2447;DHT22;26430;48.818;9.244;2023-08-30T00:27:25;14.20;99.90
2447;DHT22;26430;48.818;9.244;2023-08-30T00:29:51;14.30;99.90
2447;DHT22;26430;48.818;9.244;2023-08-30T00:32:16;14.30;99.90
2447;DHT22;26430;48.818;9.244;2023-08-30T00:34:42;14.30;99.90
2447;DHT22;26430;48.818;9.244;2023-08-30T00:37:07;14.20;99.90
2447;DHT22;26430;48.818;9.244;2023-08-30T00:39:34;14.10;99.90
2447;DHT22;26430;48.818;9.244;2023-08-30T00:41:59;14.00;99.90
2447;DHT22;26430;48.818;9.244;2023-08-30T00:44:30;13.90;99.90
2447;DHT22;26430;48.818;9.244;2023-08-30T00:46:55;13.90;99.90
2447;DHT22;26430;48.818;9.244;2023-08-30T00:49:21;14.00;99.90
2447;DHT22;26430;48.818;9.244;2023-08-30T00:51:46;14.00;99.90
2447;DHT22;26430;48.818;9.244;2023-08-30T00:54:12;13.70;99.90
2447;DHT22;26430;48.818;9.244;2023-08-30T00:56:37;13.60;99.90
2447;DHT22;26430;48.818;9.244;2023-08-30T00:59:03;13.70;99.90
2447;DHT22;26430;48.818;9.244;2023-08-30T01:01:28;13.60;99.90
2447;DHT22;26430;48.818;9.244;2023-08-30T01:03:54;13.60;99.90
2447;DHT22;26430;48.818;9.244;2023-08-30T01:06:20;13.60;99.90
2447;DHT22;26430;48.818;9.244;2023-08-30T01:08:45;13.60;99.90
2447;DHT22;26430;48.818;9.244;2023-08-30T01:13:44;13.50;99.90
2447;DHT22;26430;48.818;9.244;2023-08-30T01:16:11;13.50;99.90
2447;DHT22;26430;48.818;9.244;2023-08-30T01:18:39;13.50;99.90
2447;DHT22;26430;48.818;9.244;2023-08-30T01:21:11;13.60;99.90
2447;DHT22;26430;48.818;9.244;2023-08-30T01:24:00;13.60;99.90
2447;DHT22;26430;48.818;9.244;2023-08-30T01:27:07;13.60;99.90
2447;DHT22;26430;48.818;9.244;2023-08-30T01:29:33;13.60;99.90
2447;DHT22;26430;48.818;9.244;2023-08-30T01:32:01;13.50;99.90
2447;DHT22;26430;48.818;9.244;2023-08-30T01:34:27;13.40;99.90
2447;DHT22;26430;48.818;9.244;2023-08-30T01:36:53;13.50;99.90
2447;DHT22;26430;48.818;9.244;2023-08-30T01:39:19;13.70;99.90
2447;DHT22;26430;48.818;9.244;2023-08-30T01:41:47;13.80;99.90
2447;DHT22;26430;48.818;9.244;2023-08-30T01:44:13;14.00;99.90
2447;DHT22;26430;48.818;9.244;2023-08-30T01:46:47;13.90;99.90
2447;DHT22;26430;48.818;9.244;2023-08-30T01:49:15;13.90;99.90
2447;DHT22;26430;48.818;9.244;2023-08-30T01:51:40;13.90;99.90
2447;DHT22;26430;48.818;9.244;2023-08-30T01:54:07;13.90;99.90
2447;DHT22;26430;48.818;9.244;2023-08-30T01:56:34;13.80;99.90
2447;DHT22;26430;48.818;9.244;2023-08-30T01:59:00;13.80;99.90
2447;DHT22;26430;48.818;9.244;2023-08-30T02:01:25;13.80;99.90
2447;DHT22;26430;48.818;9.244;2023-08-30T02:03:51;13.80;99.90
2447;DHT22;26430;48.818;9.244;2023-08-30T02:09:21;13.70;99.90
2447;DHT22;26430;48.818;9.244;2023-08-30T02:11:50;13.70;99.90
2447;DHT22;26430;48.818;9.244;2023-08-30T02:14:18;13.60;99.90
2447;DHT22;26430;48.818;9.244;2023-08-30T02:16:46;13.60;99.90
2447;DHT22;26430;48.818;9.244;2023-08-30T02:19:12;13.60;99.90
2447;DHT22;26430;48.818;9.244;2023-08-30T02:21:42;13.60;99.90
2447;DHT22;26430;48.818;9.244;2023-08-30T02:24:07;13.60;99.90
2447;DHT22;26430;48.818;9.244;2023-08-30T02:26:33;13.60;99.90
2447;DHT22;26430;48.818;9.244;2023-08-30T02:28:59;13.70;99.90
2447;DHT22;26430;48.818;9.244;2023-08-30T02:31:25;13.60;99.90
2447;DHT22;26430;48.818;9.244;2023-08-30T02:33:50;13.60;99.90
2447;DHT22;26430;48.818;9.244;2023-08-30T02:36:16;13.60;99.90
2447;DHT22;26430;48.818;9.244;2023-08-30T02:38:41;13.60;99.90
2447;DHT22;26430;48.818;9.244;2023-08-30T02:41:07;13.60;99.90
2447;DHT22;26430;48.818;9.244;2023-08-30T02:43:32;13.70;99.90
2447;DHT22;26430;48.818;9.244;2023-08-30T02:45:58;13.80;99.90
2447;DHT22;26430;48.818;9.244;2023-08-30T02:48:24;13.80;99.90
2447;DHT22;26430;48.818;9.244;2023-08-30T02:50:49;13.80;99.90
2447;DHT22;26430;48.818;9.244;2023-08-30T02:53:15;13.80;99.90
2447;DHT22;26430;48.818;9.244;2023-08-30T02:55:40;13.70;99.90
2447;DHT22;26430;48.818;9.244;2023-08-30T02:58:06;13.80;99.90
2447;DHT22;26430;48.818;9.244;2023-08-30T03:00:31;13.90;99.90
2447;DHT22;26430;48.818;9.244;2023-08-30T03:02:57;14.00;99.90
2447;DHT22;26430;48.818;9.244;2023-08-30T03:05:22;14.00;99.90
2447;DHT22;26430;48.818;9.244;2023-08-30T03:07:48;14.10;99.90
2447;DHT22;26430;48.818;9.244;2023-08-30T03:10:13;13.80;99.90
2447;DHT22;26430;48.818;9.244;2023-08-30T03:12:39;13.70;99.90
2447;DHT22;26430;48.818;9.244;2023-08-30T03:15:05;13.50;99.90
2447;DHT22;26430;48.818;9.244;2023-08-30T03:17:31;13.40;99.90
2447;DHT22;26430;48.818;9.244;2023-08-30T03:19:56;13.40;99.90
2447;DHT22;26430;48.818;9.244;2023-08-30T03:22:22;13.50;99.90
2447;DHT22;26430;48.818;9.244;2023-08-30T03:24:48;13.30;99.90
2447;DHT22;26430;48.818;9.244;2023-08-30T03:27:15;13.30;99.90
2447;DHT22;26430;48.818;9.244;2023-08-30T03:29:40;13.30;99.90
2447;DHT22;26430;48.818;9.244;2023-08-30T03:32:06;13.30;99.90
2447;DHT22;26430;48.818;9.244;2023-08-30T03:34:32;13.40;99.90
2447;DHT22;26430;48.818;9.244;2023-08-30T03:36:57;13.50;99.90
2447;DHT22;26430;48.818;9.244;2023-08-30T03:39:23;13.50;99.90
2447;DHT22;26430;48.818;9.244;2023-08-30T03:41:50;13.50;99.90
2447;DHT22;26430;48.818;9.244;2023-08-30T03:44:15;13.50;99.90
2447;DHT22;26430;48.818;9.244;2023-08-30T03:46:41;13.40;99.90
2447;DHT22;26430;48.818;9.244;2023-08-30T03:49:07;13.30;99.90
2447;DHT22;26430;48.818;9.244;2023-08-30T03:51:32;13.30;99.90
2447;DHT22;26430;48.818;9.244;2023-08-30T03:53:58;13.30;99.90
2447;DHT22;26430;48.818;9.244;2023-08-30T03:56:23;13.40;99.90
2447;DHT22;26430;48.818;9.244;2023-08-30T03:58:49;13.50;99.90
2447;DHT22;26430;48.818;9.244;2023-08-30T04:01:15;13.50;99.90
2447;DHT22;26430;48.818;9.244;2023-08-30T04:03:40;13.40;99.90
2447;DHT22;26430;48.818;9.244;2023-08-30T04:06:06;13.30;99.90
2447;DHT22;26430;48.818;9.244;2023-08-30T04:08:32;13.40;99.90
2447;DHT22;26430;48.818;9.244;2023-08-30T04:10:58;13.30;99.90
2447;DHT22;26430;48.818;9.244;2023-08-30T04:13:24;13.30;99.90
2447;DHT22;26430;48.818;9.244;2023-08-30T04:15:49;13.30;99.90
2447;DHT22;26430;48.818;9.244;2023-08-30T04:18:16;13.20;99.90
2447;DHT22;26430;48.818;9.244;2023-08-30T04:20:45;13.20;99.90
2447;DHT22;26430;48.818;9.244;2023-08-30T04:23:11;13.40;99.90
2447;DHT22;26430;48.818;9.244;2023-08-30T04:25:37;13.40;99.90
2447;DHT22;26430;48.818;9.244;2023-08-30T04:28:03;13.60;99.90
2447;DHT22;26430;48.818;9.244;2023-08-30T04:30:28;13.40;99.90
2447;DHT22;26430;48.818;9.244;2023-08-30T04:32:54;13.40;99.90
2447;DHT22;26430;48.818;9.244;2023-08-30T04:35:20;13.50;99.90
2447;DHT22;26430;48.818;9.244;2023-08-30T04:37:45;13.50;99.90
2447;DHT22;26430;48.818;9.244;2023-08-30T04:40:11;13.60;99.90
2447;DHT22;26430;48.818;9.244;2023-08-30T04:42:37;13.60;99.90
2447;DHT22;26430;48.818;9.244;2023-08-30T04:45:05;13.60;99.90
2447;DHT22;26430;48.818;9.244;2023-08-30T04:47:32;13.60;99.90
2447;DHT22;26430;48.818;9.244;2023-08-30T04:49:57;13.60;99.90
2447;DHT22;26430;48.818;9.244;2023-08-30T04:52:23;13.60;99.90
2447;DHT22;26430;48.818;9.244;2023-08-30T04:54:48;13.60;99.90
2447;DHT22;26430;48.818;9.244;2023-08-30T04:57:15;13.60;99.90
2447;DHT22;26430;48.818;9.244;2023-08-30T04:59:41;13.60;99.90
2447;DHT22;26430;48.818;9.244;2023-08-30T05:02:07;13.60;99.90
2447;DHT22;26430;48.818;9.244;2023-08-30T05:04:33;13.70;99.90
2447;DHT22;26430;48.818;9.244;2023-08-30T05:06:58;13.90;99.90
2447;DHT22;26430;48.818;9.244;2023-08-30T05:09:24;14.00;99.90
2447;DHT22;26430;48.818;9.244;2023-08-30T05:11:53;14.00;99.90
2447;DHT22;26430;48.818;9.244;2023-08-30T05:14:19;14.00;99.90
2447;DHT22;26430;48.818;9.244;2023-08-30T05:16:45;14.00;99.90
2447;DHT22;26430;48.818;9.244;2023-08-30T05:19:11;14.10;99.90
2447;DHT22;26430;48.818;9.244;2023-08-30T05:21:37;14.00;99.90
2447;DHT22;26430;48.818;9.244;2023-08-30T05:24:03;13.90;99.90
2447;DHT22;26430;48.818;9.244;2023-08-30T05:26:28;13.90;99.90
2447;DHT22;26430;48.818;9.244;2023-08-30T05:28:54;14.00;99.90
2447;DHT22;26430;48.818;9.244;2023-08-30T05:31:19;14.20;99.90
2447;DHT22;26430;48.818;9.244;2023-08-30T05:33:45;14.30;99.90
2447;DHT22;26430;48.818;9.244;2023-08-30T05:36:10;14.20;99.90
2447;DHT22;26430;48.818;9.244;2023-08-30T05:38:36;14.20;99.90
2447;DHT22;26430;48.818;9.244;2023-08-30T05:41:01;14.00;99.90
2447;DHT22;26430;48.818;9.244;2023-08-30T05:43:27;13.70;99.90
2447;DHT22;26430;48.818;9.244;2023-08-30T05:45:53;13.70;99.90
2447;DHT22;26430;48.818;9.244;2023-08-30T05:48:18;13.50;99.90
2447;DHT22;26430;48.818;9.244;2023-08-30T05:50:44;13.40;99.90
2447;DHT22;26430;48.818;9.244;2023-08-30T05:53:10;13.50;99.90
2447;DHT22;26430;48.818;9.244;2023-08-30T05:55:36;13.50;99.90
2447;DHT22;26430;48.818;9.244;2023-08-30T05:58:02;13.40;99.90
2447;DHT22;26430;48.818;9.244;2023-08-30T06:00:28;13.40;99.90
2447;DHT22;26430;48.818;9.244;2023-08-30T06:02:54;13.50;99.90
2447;DHT22;26430;48.818;9.244;2023-08-30T06:05:19;13.50;99.90
2447;DHT22;26430;48.818;9.244;2023-08-30T06:07:45;13.40;99.90
2447;DHT22;26430;48.818;9.244;2023-08-30T06:10:11;13.40;99.90
2447;DHT22;26430;48.818;9.244;2023-08-30T06:12:37;13.50;99.90
2447;DHT22;26430;48.818;9.244;2023-08-30T06:15:03;13.30;99.90
2447;DHT22;26430;48.818;9.244;2023-08-30T06:17:29;13.30;99.90
2447;DHT22;26430;48.818;9.244;2023-08-30T06:19:54;13.40;99.90
2447;DHT22;26430;48.818;9.244;2023-08-30T06:22:20;13.40;99.90
2447;DHT22;26430;48.818;9.244;2023-08-30T06:24:45;13.40;99.90
2447;DHT22;26430;48.818;9.244;2023-08-30T06:27:11;13.40;99.90
2447;DHT22;26430;48.818;9.244;2023-08-30T06:29:36;13.60;99.90
2447;DHT22;26430;48.818;9.244;2023-08-30T06:32:02;13.70;99.90
2447;DHT22;26430;48.818;9.244;2023-08-30T06:34:29;13.60;99.90
2447;DHT22;26430;48.818;9.244;2023-08-30T06:36:54;13.70;99.90
2447;DHT22;26430;48.818;9.244;2023-08-30T06:39:20;13.80;99.90
2447;DHT22;26430;48.818;9.244;2023-08-30T06:41:45;13.80;99.90
2447;DHT22;26430;48.818;9.244;2023-08-30T06:44:11;13.70;99.90
2447;DHT22;26430;48.818;9.244;2023-08-30T06:46:36;13.70;99.90
2447;DHT22;26430;48.818;9.244;2023-08-30T06:49:03;13.60;99.90
2447;DHT22;26430;48.818;9.244;2023-08-30T06:51:29;13.70;99.90
2447;DHT22;26430;48.818;9.244;2023-08-30T06:53:54;13.70;99.90
2447;DHT22;26430;48.818;9.244;2023-08-30T06:56:20;13.70;99.90
2447;DHT22;26430;48.818;9.244;2023-08-30T06:58:46;13.70;99.90
2447;DHT22;26430;48.818;9.244;2023-08-30T07:01:12;13.70;99.90
2447;DHT22;26430;48.818;9.244;2023-08-30T07:03:37;13.80;99.90
2447;DHT22;26430;48.818;9.244;2023-08-30T07:06:05;14.00;99.90
2447;DHT22;26430;48.818;9.244;2023-08-30T07:08:31;13.90;99.90
2447;DHT22;26430;48.818;9.244;2023-08-30T07:10:57;13.90;99.90
2447;DHT22;26430;48.818;9.244;2023-08-30T07:13:23;14.20;99.90
2447;DHT22;26430;48.818;9.244;2023-08-30T07:15:48;14.10;99.90
2447;DHT22;26430;48.818;9.244;2023-08-30T07:18:14;14.10;99.90
2447;DHT22;26430;48.818;9.244;2023-08-30T07:20:39;14.20;99.90
2447;DHT22;26430;48.818;9.244;2023-08-30T07:23:05;14.20;99.90
2447;DHT22;26430;48.818;9.244;2023-08-30T07:25:31;14.10;99.90
2447;DHT22;26430;48.818;9.244;2023-08-30T07:27:59;14.30;99.90
2447;DHT22;26430;48.818;9.244;2023-08-30T07:30:25;14.10;99.90
2447;DHT22;26430;48.818;9.244;2023-08-30T07:32:50;14.10;99.90
2447;DHT22;26430;48.818;9.244;2023-08-30T07:35:16;14.00;99.90
2447;DHT22;26430;48.818;9.244;2023-08-30T07:37:42;14.00;99.90
2447;DHT22;26430;48.818;9.244;2023-08-30T07:40:08;13.90;99.90
2447;DHT22;26430;48.818;9.244;2023-08-30T07:42:34;14.00;99.90
2447;DHT22;26430;48.818;9.244;2023-08-30T07:44:59;13.90;99.90
2447;DHT22;26430;48.818;9.244;2023-08-30T07:47:25;13.90;99.90
2447;DHT22;26430;48.818;9.244;2023-08-30T07:49:50;14.00;99.90
2447;DHT22;26430;48.818;9.244;2023-08-30T07:52:16;14.00;99.90
2447;DHT22;26430;48.818;9.244;2023-08-30T07:54:41;14.00;99.90
2447;DHT22;26430;48.818;9.244;2023-08-30T07:57:07;14.00;99.90
2447;DHT22;26430;48.818;9.244;2023-08-30T07:59:36;14.20;99.90
2447;DHT22;26430;48.818;9.244;2023-08-30T08:02:03;14.20;99.90
2447;DHT22;26430;48.818;9.244;2023-08-30T08:04:29;14.20;99.90
2447;DHT22;26430;48.818;9.244;2023-08-30T08:06:54;14.00;99.90
2447;DHT22;26430;48.818;9.244;2023-08-30T08:09:20;14.10;99.90
2447;DHT22;26430;48.818;9.244;2023-08-30T08:11:48;14.10;99.90
2447;DHT22;26430;48.818;9.244;2023-08-30T08:14:14;14.30;99.90
2447;DHT22;26430;48.818;9.244;2023-08-30T08:16:40;14.30;99.90
2447;DHT22;26430;48.818;9.244;2023-08-30T08:19:06;14.40;99.90
2447;DHT22;26430;48.818;9.244;2023-08-30T08:21:33;14.30;99.90
2447;DHT22;26430;48.818;9.244;2023-08-30T08:23:58;14.40;99.90
2447;DHT22;26430;48.818;9.244;2023-08-30T08:26:24;14.30;99.90
2447;DHT22;26430;48.818;9.244;2023-08-30T08:28:50;14.30;99.90
2447;DHT22;26430;48.818;9.244;2023-08-30T08:31:16;14.50;99.90
2447;DHT22;26430;48.818;9.244;2023-08-30T08:33:41;14.40;99.90
2447;DHT22;26430;48.818;9.244;2023-08-30T08:36:07;14.40;99.90
2447;DHT22;26430;48.818;9.244;2023-08-30T08:38:32;14.50;99.90
2447;DHT22;26430;48.818;9.244;2023-08-30T08:41:03;14.50;99.90
2447;DHT22;26430;48.818;9.244;2023-08-30T08:43:32;14.50;99.90
2447;DHT22;26430;48.818;9.244;2023-08-30T08:46:01;14.40;99.90
2447;DHT22;26430;48.818;9.244;2023-08-30T08:48:28;14.50;99.90
2447;DHT22;26430;48.818;9.244;2023-08-30T08:50:55;14.50;99.90
2447;DHT22;26430;48.818;9.244;2023-08-30T08:53:22;14.50;99.90
2447;DHT22;26430;48.818;9.244;2023-08-30T08:55:48;14.70;99.90
2447;DHT22;26430;48.818;9.244;2023-08-30T08:58:14;14.70;99.90
2447;DHT22;26430;48.818;9.244;2023-08-30T09:00:42;14.80;99.90
2447;DHT22;26430;48.818;9.244;2023-08-30T09:03:08;15.00;99.90
2447;DHT22;26430;48.818;9.244;2023-08-30T09:05:37;14.90;99.90
2447;DHT22;26430;48.818;9.244;2023-08-30T09:08:04;15.00;99.90
2447;DHT22;26430;48.818;9.244;2023-08-30T09:10:31;15.00;99.90
2447;DHT22;26430;48.818;9.244;2023-08-30T09:12:58;15.30;99.90
2447;DHT22;26430;48.818;9.244;2023-08-30T09:15:33;15.20;99.90
2447;DHT22;26430;48.818;9.244;2023-08-30T09:17:59;15.30;99.90
2447;DHT22;26430;48.818;9.244;2023-08-30T09:20:24;15.40;99.90
2447;DHT22;26430;48.818;9.244;2023-08-30T09:22:50;15.30;99.90
2447;DHT22;26430;48.818;9.244;2023-08-30T09:25:26;15.40;99.90
2447;DHT22;26430;48.818;9.244;2023-08-30T09:27:57;15.40;99.90
2447;DHT22;26430;48.818;9.244;2023-08-30T09:30:24;15.60;99.90
2447;DHT22;26430;48.818;9.244;2023-08-30T09:32:49;15.80;99.90
2447;DHT22;26430;48.818;9.244;2023-08-30T09:35:15;15.80;99.90
2447;DHT22;26430;48.818;9.244;2023-08-30T09:37:40;16.10;99.90
2447;DHT22;26430;48.818;9.244;2023-08-30T09:40:06;16.50;99.90
2447;DHT22;26430;48.818;9.244;2023-08-30T09:42:32;16.40;99.90
2447;DHT22;26430;48.818;9.244;2023-08-30T09:44:58;16.60;99.90
2447;DHT22;26430;48.818;9.244;2023-08-30T09:47:27;16.50;99.90
2447;DHT22;26430;48.818;9.244;2023-08-30T09:49:55;16.50;99.90
2447;DHT22;26430;48.818;9.244;2023-08-30T09:52:23;16.70;99.90
2447;DHT22;26430;48.818;9.244;2023-08-30T09:54:49;16.80;99.90
2447;DHT22;26430;48.818;9.244;2023-08-30T09:57:16;16.90;99.90
2447;DHT22;26430;48.818;9.244;2023-08-30T09:59:42;17.30;99.90
2447;DHT22;26430;48.818;9.244;2023-08-30T10:02:08;17.60;99.90
2447;DHT22;26430;48.818;9.244;2023-08-30T10:04:35;17.80;99.90
2447;DHT22;26430;48.818;9.244;2023-08-30T10:07:03;17.70;99.90
2447;DHT22;26430;48.818;9.244;2023-08-30T10:09:30;17.80;99.90
2447;DHT22;26430;48.818;9.244;2023-08-30T10:11:58;18.00;99.90
2447;DHT22;26430;48.818;9.244;2023-08-30T10:14:23;18.10;99.90
2447;DHT22;26430;48.818;9.244;2023-08-30T10:16:49;18.60;99.90
2447;DHT22;26430;48.818;9.244;2023-08-30T10:19:17;18.20;99.90
2447;DHT22;26430;48.818;9.244;2023-08-30T10:22:06;18.70;99.90
2447;DHT22;26430;48.818;9.244;2023-08-30T10:24:44;18.50;99.90
2447;DHT22;26430;48.818;9.244;2023-08-30T10:27:14;18.80;99.90
2447;DHT22;26430;48.818;9.244;2023-08-30T10:29:41;19.10;99.90
2447;DHT22;26430;48.818;9.244;2023-08-30T10:32:08;19.00;99.90
2447;DHT22;26430;48.818;9.244;2023-08-30T10:34:35;18.70;99.90
2447;DHT22;26430;48.818;9.244;2023-08-30T10:37:03;19.50;99.90
2447;DHT22;26430;48.818;9.244;2023-08-30T10:39:38;20.30;99.90
2447;DHT22;26430;48.818;9.244;2023-08-30T10:42:12;20.90;99.90
2447;DHT22;26430;48.818;9.244;2023-08-30T10:44:51;21.30;99.90
2447;DHT22;26430;48.818;9.244;2023-08-30T10:47:22;21.80;99.90
2447;DHT22;26430;48.818;9.244;2023-08-30T10:49:49;21.20;99.90
2447;DHT22;26430;48.818;9.244;2023-08-30T10:52:14;20.60;99.90
2447;DHT22;26430;48.818;9.244;2023-08-30T10:54:40;20.70;99.90
2447;DHT22;26430;48.818;9.244;2023-08-30T10:57:17;21.10;99.90
2447;DHT22;26430;48.818;9.244;2023-08-30T11:02:32;21.00;99.90
2447;DHT22;26430;48.818;9.244;2023-08-30T11:04:58;20.30;99.90
2447;DHT22;26430;48.818;9.244;2023-08-30T11:07:27;20.30;99.90
2447;DHT22;26430;48.818;9.244;2023-08-30T11:09:53;20.00;99.90
2447;DHT22;26430;48.818;9.244;2023-08-30T11:12:19;20.10;99.90
2447;DHT22;26430;48.818;9.244;2023-08-30T11:14:48;20.10;99.90
2447;DHT22;26430;48.818;9.244;2023-08-30T11:17:16;20.10;99.90
2447;DHT22;26430;48.818;9.244;2023-08-30T11:19:42;19.90;99.90
2447;DHT22;26430;48.818;9.244;2023-08-30T11:22:08;20.10;99.90
2447;DHT22;26430;48.818;9.244;2023-08-30T11:24:34;19.90;99.90
2447;DHT22;26430;48.818;9.244;2023-08-30T11:27:00;20.00;99.90
2447;DHT22;26430;48.818;9.244;2023-08-30T11:29:27;19.80;99.90
2447;DHT22;26430;48.818;9.244;2023-08-30T11:31:52;19.80;99.90
2447;DHT22;26430;48.818;9.244;2023-08-30T11:34:21;19.70;99.90
2447;DHT22;26430;48.818;9.244;2023-08-30T11:36:50;19.70;99.90
2447;DHT22;26430;48.818;9.244;2023-08-30T11:39:16;19.80;99.90
2447;DHT22;26430;48.818;9.244;2023-08-30T11:41:43;20.10;99.90
2447;DHT22;26430;48.818;9.244;2023-08-30T11:44:09;20.30;99.90
2447;DHT22;26430;48.818;9.244;2023-08-30T11:46:35;20.30;99.90
2447;DHT22;26430;48.818;9.244;2023-08-30T11:49:01;20.30;99.90
2447;DHT22;26430;48.818;9.244;2023-08-30T11:51:28;20.20;99.90
2447;DHT22;26430;48.818;9.244;2023-08-30T11:53:55;19.90;99.90
2447;DHT22;26430;48.818;9.244;2023-08-30T11:56:21;19.10;99.90
2447;DHT22;26430;48.818;9.244;2023-08-30T11:58:46;18.80;99.90
2447;DHT22;26430;48.818;9.244;2023-08-30T12:01:12;18.80;99.90
2447;DHT22;26430;48.818;9.244;2023-08-30T12:03:38;18.80;99.90
2447;DHT22;26430;48.818;9.244;2023-08-30T12:06:10;18.70;99.90
2447;DHT22;26430;48.818;9.244;2023-08-30T12:08:36;18.60;99.90
2447;DHT22;26430;48.818;9.244;2023-08-30T12:11:02;18.50;99.90
2447;DHT22;26430;48.818;9.244;2023-08-30T12:13:30;18.50;99.90
2447;DHT22;26430;48.818;9.244;2023-08-30T12:15:58;18.50;99.90
2447;DHT22;26430;48.818;9.244;2023-08-30T12:18:28;18.30;99.90
2447;DHT22;26430;48.818;9.244;2023-08-30T12:21:03;18.30;99.90
2447;DHT22;26430;48.818;9.244;2023-08-30T12:23:30;18.30;99.90
2447;DHT22;26430;48.818;9.244;2023-08-30T12:26:01;18.20;99.90
2447;DHT22;26430;48.818;9.244;2023-08-30T12:28:28;18.10;99.90
2447;DHT22;26430;48.818;9.244;2023-08-30T12:30:54;18.00;99.90
2447;DHT22;26430;48.818;9.244;2023-08-30T12:33:20;17.80;99.90
2447;DHT22;26430;48.818;9.244;2023-08-30T12:35:46;17.30;99.90
2447;DHT22;26430;48.818;9.244;2023-08-30T12:38:12;16.90;99.90
2447;DHT22;26430;48.818;9.244;2023-08-30T12:40:46;17.00;99.90
2447;DHT22;26430;48.818;9.244;2023-08-30T12:43:15;17.00;99.90
2447;DHT22;26430;48.818;9.244;2023-08-30T12:45:41;16.80;99.90
2447;DHT22;26430;48.818;9.244;2023-08-30T12:48:07;17.00;99.90
2447;DHT22;26430;48.818;9.244;2023-08-30T12:50:37;17.00;99.90
2447;DHT22;26430;48.818;9.244;2023-08-30T12:53:06;17.20;99.90
2447;DHT22;26430;48.818;9.244;2023-08-30T12:55:33;17.30;99.90
2447;DHT22;26430;48.818;9.244;2023-08-30T12:58:00;17.40;99.90
2447;DHT22;26430;48.818;9.244;2023-08-30T13:00:26;17.30;99.90
2447;DHT22;26430;48.818;9.244;2023-08-30T13:02:51;17.30;99.90
2447;DHT22;26430;48.818;9.244;2023-08-30T13:05:17;17.40;99.90
2447;DHT22;26430;48.818;9.244;2023-08-30T13:07:43;17.50;99.90
2447;DHT22;26430;48.818;9.244;2023-08-30T13:10:09;17.60;99.90
2447;DHT22;26430;48.818;9.244;2023-08-30T13:12:35;17.60;99.90
2447;DHT22;26430;48.818;9.244;2023-08-30T13:15:02;17.80;99.90
2447;DHT22;26430;48.818;9.244;2023-08-30T13:17:27;18.00;99.90
2447;DHT22;26430;48.818;9.244;2023-08-30T13:19:53;18.30;99.90
2447;DHT22;26430;48.818;9.244;2023-08-30T13:22:18;18.50;99.90
2447;DHT22;26430;48.818;9.244;2023-08-30T13:24:44;18.70;99.90
2447;DHT22;26430;48.818;9.244;2023-08-30T13:27:10;18.80;99.90
2447;DHT22;26430;48.818;9.244;2023-08-30T13:29:36;19.00;99.90
2447;DHT22;26430;48.818;9.244;2023-08-30T13:32:01;18.90;99.90
2447;DHT22;26430;48.818;9.244;2023-08-30T13:34:27;19.00;99.90
2447;DHT22;26430;48.818;9.244;2023-08-30T13:36:52;19.20;99.90
2447;DHT22;26430;48.818;9.244;2023-08-30T13:39:18;19.00;99.90
2447;DHT22;26430;48.818;9.244;2023-08-30T13:41:46;19.10;99.90
2447;DHT22;26430;48.818;9.244;2023-08-30T13:44:12;19.10;99.90
2447;DHT22;26430;48.818;9.244;2023-08-30T13:46:38;18.90;99.90
2447;DHT22;26430;48.818;9.244;2023-08-30T13:49:03;18.60;99.90
2447;DHT22;26430;48.818;9.244;2023-08-30T13:51:29;18.80;99.90
2447;DHT22;26430;48.818;9.244;2023-08-30T13:53:55;18.70;99.90
2447;DHT22;26430;48.818;9.244;2023-08-30T13:56:21;18.80;99.90
2447;DHT22;26430;48.818;9.244;2023-08-30T13:58:47;19.00;99.90
2447;DHT22;26430;48.818;9.244;2023-08-30T14:01:13;19.30;99.90
2447;DHT22;26430;48.818;9.244;2023-08-30T14:03:38;19.40;99.90
2447;DHT22;26430;48.818;9.244;2023-08-30T14:06:04;19.40;99.90
2447;DHT22;26430;48.818;9.244;2023-08-30T14:08:30;19.20;99.90
2447;DHT22;26430;48.818;9.244;2023-08-30T14:10:56;19.30;99.90
2447;DHT22;26430;48.818;9.244;2023-08-30T14:13:22;19.70;99.90
2447;DHT22;26430;48.818;9.244;2023-08-30T14:15:47;19.60;99.90
2447;DHT22;26430;48.818;9.244;2023-08-30T14:18:14;19.10;99.90
2447;DHT22;26430;48.818;9.244;2023-08-30T14:20:41;19.30;99.90
2447;DHT22;26430;48.818;9.244;2023-08-30T14:23:07;19.20;99.90
2447;DHT22;26430;48.818;9.244;2023-08-30T14:25:32;19.10;99.90
2447;DHT22;26430;48.818;9.244;2023-08-30T14:27:58;19.10;99.90
2447;DHT22;26430;48.818;9.244;2023-08-30T14:30:25;19.00;99.90
2447;DHT22;26430;48.818;9.244;2023-08-30T14:32:51;19.00;99.90
2447;DHT22;26430;48.818;9.244;2023-08-30T14:35:17;19.10;99.90
2447;DHT22;26430;48.818;9.244;2023-08-30T14:37:42;19.00;99.90
2447;DHT22;26430;48.818;9.244;2023-08-30T14:40:08;19.10;99.90
2447;DHT22;26430;48.818;9.244;2023-08-30T14:42:34;19.10;99.90
2447;DHT22;26430;48.818;9.244;2023-08-30T14:45:00;18.90;99.90
2447;DHT22;26430;48.818;9.244;2023-08-30T14:47:25;18.90;99.90
2447;DHT22;26430;48.818;9.244;2023-08-30T14:49:51;18.80;99.90
2447;DHT22;26430;48.818;9.244;2023-08-30T14:52:17;18.70;99.90
2447;DHT22;26430;48.818;9.244;2023-08-30T14:54:43;18.60;99.90
2447;DHT22;26430;48.818;9.244;2023-08-30T14:57:08;18.50;99.90
2447;DHT22;26430;48.818;9.244;2023-08-30T14:59:34;18.50;99.90
2447;DHT22;26430;48.818;9.244;2023-08-30T15:02:00;18.40;99.90
2447;DHT22;26430;48.818;9.244;2023-08-30T15:04:26;18.30;99.90
2447;DHT22;26430;48.818;9.244;2023-08-30T15:06:51;18.20;99.90
2447;DHT22;26430;48.818;9.244;2023-08-30T15:09:17;18.10;99.90
2447;DHT22;26430;48.818;9.244;2023-08-30T15:11:44;18.10;99.90
2447;DHT22;26430;48.818;9.244;2023-08-30T15:14:10;18.30;99.90
2447;DHT22;26430;48.818;9.244;2023-08-30T15:16:35;18.40;99.90
2447;DHT22;26430;48.818;9.244;2023-08-30T15:19:01;18.60;99.90
2447;DHT22;26430;48.818;9.244;2023-08-30T15:21:27;18.80;99.90
2447;DHT22;26430;48.818;9.244;2023-08-30T15:23:52;18.90;99.90
2447;DHT22;26430;48.818;9.244;2023-08-30T15:26:18;18.90;99.90
2447;DHT22;26430;48.818;9.244;2023-08-30T15:28:46;19.00;99.90
2447;DHT22;26430;48.818;9.244;2023-08-30T15:31:13;19.10;99.90
2447;DHT22;26430;48.818;9.244;2023-08-30T15:33:38;19.10;99.90
2447;DHT22;26430;48.818;9.244;2023-08-30T15:36:04;19.10;99.90
2447;DHT22;26430;48.818;9.244;2023-08-30T15:38:30;18.80;99.90
2447;DHT22;26430;48.818;9.244;2023-08-30T15:40:55;18.70;99.90
2447;DHT22;26430;48.818;9.244;2023-08-30T15:43:21;18.90;99.90
2447;DHT22;26430;48.818;9.244;2023-08-30T15:45:47;18.90;99.90
2447;DHT22;26430;48.818;9.244;2023-08-30T15:48:13;18.90;99.90